sensor_id;sensor_type;location;lat;lon;timestamp;pressure;altitude;pressure_sealevel;temperature;humidity
12360;BME280;6244;51.460;7.090;2023-12-22T00:03:43;99126.28;;;4.93;92.64
12360;BME280;6244;51.460;7.090;2023-12-22T00:08:41;99119.19;;;4.97;91.52
12360;BME280;6244;51.460;7.090;2023-12-22T00:13:37;99119.19;;;4.80;94.33
12360;BME280;6244;51.460;7.090;2023-12-22T00:18:36;99124.19;;;4.84;95.45
12360;BME280;6244;51.460;7.090;2023-12-22T00:23:32;99139.31;;;4.76;96.13
12360;BME280;6244;51.460;7.090;2023-12-22T00:28:31;99146.72;;;4.84;97.06
12360;BME280;6244;51.460;7.090;2023-12-22T00:33:28;99158.94;;;4.82;98.19
12360;BME280;6244;51.460;7.090;2023-12-22T00:38:25;99160.53;;;5.01;96.34
12360;BME280;6244;51.460;7.090;2023-12-22T00:43:22;99173.88;;;5.11;96.55
12360;BME280;6244;51.460;7.090;2023-12-22T00:48:18;99165.56;;;5.05;96.98
12360;BME280;6244;51.460;7.090;2023-12-22T00:53:15;99175.53;;;4.96;97.32
12360;BME280;6244;51.460;7.090;2023-12-22T00:58:13;99176.56;;;5.10;98.68
12360;BME280;6244;51.460;7.090;2023-12-22T01:03:09;99159.88;;;5.14;97.11
12360;BME280;6244;51.460;7.090;2023-12-22T01:08:07;99169.69;;;5.09;97.40
12360;BME280;6244;51.460;7.090;2023-12-22T01:13:03;99177.88;;;5.01;99.02
12360;BME280;6244;51.460;7.090;2023-12-22T01:18:01;99183.66;;;5.06;98.71
12360;BME280;6244;51.460;7.090;2023-12-22T01:22:57;99173.88;;;5.11;99.87
12360;BME280;6244;51.460;7.090;2023-12-22T01:27:54;99164.50;;;5.24;98.42
12360;BME280;6244;51.460;7.090;2023-12-22T01:32:50;99201.59;;;5.28;88.59
12360;BME280;6244;51.460;7.090;2023-12-22T01:37:48;99170.53;;;5.09;78.36
12360;BME280;6244;51.460;7.090;2023-12-22T01:42:49;99185.00;;;4.97;81.83
12360;BME280;6244;51.460;7.090;2023-12-22T01:47:46;99223.53;;;4.55;86.91
12360;BME280;6244;51.460;7.090;2023-12-22T01:52:44;99228.56;;;4.58;88.26
12360;BME280;6244;51.460;7.090;2023-12-22T01:57:43;99229.91;;;4.84;88.42
12360;BME280;6244;51.460;7.090;2023-12-22T02:02:40;99244.91;;;4.94;88.71
12360;BME280;6244;51.460;7.090;2023-12-22T02:07:38;99230.56;;;4.70;91.74
12360;BME280;6244;51.460;7.090;2023-12-22T02:12:36;99225.53;;;4.67;92.19
12360;BME280;6244;51.460;7.090;2023-12-22T02:17:40;99225.59;;;4.83;93.02
12360;BME280;6244;51.460;7.090;2023-12-22T02:22:39;99222.00;;;4.85;92.60
12360;BME280;6244;51.460;7.090;2023-12-22T02:27:40;99231.09;;;4.77;91.72
12360;BME280;6244;51.460;7.090;2023-12-22T02:32:41;99236.66;;;4.69;93.47
12360;BME280;6244;51.460;7.090;2023-12-22T02:37:40;99233.53;;;4.80;93.58
12360;BME280;6244;51.460;7.090;2023-12-22T02:42:38;99240.03;;;4.71;94.88
12360;BME280;6244;51.460;7.090;2023-12-22T02:47:34;99228.59;;;4.75;94.26
12360;BME280;6244;51.460;7.090;2023-12-22T02:52:31;99212.47;;;4.86;94.45
12360;BME280;6244;51.460;7.090;2023-12-22T02:57:29;99197.16;;;4.80;94.18
12360;BME280;6244;51.460;7.090;2023-12-22T03:02:25;99206.97;;;4.75;95.17
12360;BME280;6244;51.460;7.090;2023-12-22T03:07:22;99228.34;;;4.80;95.26
12360;BME280;6244;51.460;7.090;2023-12-22T03:12:18;99223.75;;;4.67;93.91
12360;BME280;6244;51.460;7.090;2023-12-22T03:17:16;99214.22;;;4.68;95.29
12360;BME280;6244;51.460;7.090;2023-12-22T03:22:13;99222.00;;;4.68;96.35
12360;BME280;6244;51.460;7.090;2023-12-22T03:27:09;99225.59;;;4.65;98.04
12360;BME280;6244;51.460;7.090;2023-12-22T03:32:06;99216.09;;;4.82;98.38
12360;BME280;6244;51.460;7.090;2023-12-22T03:37:04;99246.31;;;4.84;97.47
12360;BME280;6244;51.460;7.090;2023-12-22T03:42:00;99216.34;;;4.77;98.52
12360;BME280;6244;51.460;7.090;2023-12-22T03:46:57;99220.72;;;4.77;99.88
12360;BME280;6244;51.460;7.090;2023-12-22T03:51:53;99213.59;;;4.80;98.95
12360;BME280;6244;51.460;7.090;2023-12-22T03:56:51;99233.34;;;4.84;98.78
12360;BME280;6244;51.460;7.090;2023-12-22T04:01:51;99237.91;;;4.79;99.37
12360;BME280;6244;51.460;7.090;2023-12-22T04:06:50;99221.47;;;4.61;100.00
12360;BME280;6244;51.460;7.090;2023-12-22T04:11:46;99227.19;;;4.68;100.00
12360;BME280;6244;51.460;7.090;2023-12-22T04:16:44;99250.59;;;4.85;100.00
12360;BME280;6244;51.460;7.090;2023-12-22T04:21:41;99251.38;;;4.87;100.00
12360;BME280;6244;51.460;7.090;2023-12-22T04:26:37;99249.28;;;4.94;100.00
12360;BME280;6244;51.460;7.090;2023-12-22T04:31:34;99263.66;;;5.01;100.00
12360;BME280;6244;51.460;7.090;2023-12-22T04:36:32;99258.31;;;5.04;100.00
12360;BME280;6244;51.460;7.090;2023-12-22T04:41:28;99280.38;;;4.95;100.00
12360;BME280;6244;51.460;7.090;2023-12-22T04:46:25;99293.72;;;4.72;100.00
12360;BME280;6244;51.460;7.090;2023-12-22T04:51:21;99316.03;;;4.57;100.00
12360;BME280;6244;51.460;7.090;2023-12-22T04:56:19;99275.88;;;4.28;100.00
12360;BME280;6244;51.460;7.090;2023-12-22T05:01:16;99290.13;;;4.20;100.00
12360;BME280;6244;51.460;7.090;2023-12-22T05:06:13;99294.06;;;4.28;100.00
12360;BME280;6244;51.460;7.090;2023-12-22T05:11:09;99306.28;;;4.07;100.00
12360;BME280;6244;51.460;7.090;2023-12-22T05:16:07;99311.63;;;3.86;100.00
12360;BME280;6244;51.460;7.090;2023-12-22T05:21:04;99303.28;;;3.79;100.00
12360;BME280;6244;51.460;7.090;2023-12-22T05:26:00;99296.66;;;3.72;100.00
12360;BME280;6244;51.460;7.090;2023-12-22T05:30:57;99302.28;;;3.81;100.00
12360;BME280;6244;51.460;7.090;2023-12-22T05:35:55;99312.53;;;3.85;100.00
12360;BME280;6244;51.460;7.090;2023-12-22T05:40:52;99307.53;;;3.80;100.00
12360;BME280;6244;51.460;7.090;2023-12-22T05:45:48;99313.44;;;4.02;100.00
12360;BME280;6244;51.460;7.090;2023-12-22T05:50:45;99317.72;;;4.03;100.00
12360;BME280;6244;51.460;7.090;2023-12-22T05:55:42;99326.44;;;4.02;100.00
12360;BME280;6244;51.460;7.090;2023-12-22T06:00:39;99335.41;;;4.14;100.00
12360;BME280;6244;51.460;7.090;2023-12-22T06:05:35;99336.03;;;4.38;100.00
12360;BME280;6244;51.460;7.090;2023-12-22T06:10:32;99351.22;;;4.46;100.00
12360;BME280;6244;51.460;7.090;2023-12-22T06:15:30;99345.00;;;4.50;100.00
12360;BME280;6244;51.460;7.090;2023-12-22T06:20:26;99345.72;;;4.34;100.00
12360;BME280;6244;51.460;7.090;2023-12-22T06:25:23;99331.59;;;4.40;100.00
12360;BME280;6244;51.460;7.090;2023-12-22T06:30:19;99323.81;;;4.21;100.00
12360;BME280;6244;51.460;7.090;2023-12-22T06:35:17;99332.75;;;4.16;100.00
12360;BME280;6244;51.460;7.090;2023-12-22T06:40:18;99347.19;;;4.21;100.00
12360;BME280;6244;51.460;7.090;2023-12-22T06:45:15;99330.97;;;4.16;100.00
12360;BME280;6244;51.460;7.090;2023-12-22T06:50:12;99323.81;;;4.21;100.00
12360;BME280;6244;51.460;7.090;2023-12-22T06:55:10;99328.59;;;4.30;100.00
12360;BME280;6244;51.460;7.090;2023-12-22T07:00:08;99309.16;;;4.39;100.00
12360;BME280;6244;51.460;7.090;2023-12-22T07:05:30;99303.38;;;4.51;100.00
12360;BME280;6244;51.460;7.090;2023-12-22T07:10:28;99298.69;;;4.58;100.00
12360;BME280;6244;51.460;7.090;2023-12-22T07:15:24;99286.28;;;4.64;100.00
12360;BME280;6244;51.460;7.090;2023-12-22T07:20:21;99294.06;;;4.64;100.00
12360;BME280;6244;51.460;7.090;2023-12-22T07:25:17;99279.41;;;4.63;100.00
12360;BME280;6244;51.460;7.090;2023-12-22T07:30:16;99277.03;;;4.76;100.00
12360;BME280;6244;51.460;7.090;2023-12-22T07:35:13;99281.78;;;4.85;100.00
12360;BME280;6244;51.460;7.090;2023-12-22T07:40:10;99295.00;;;4.98;100.00
12360;BME280;6244;51.460;7.090;2023-12-22T07:45:08;99303.34;;;5.05;100.00
12360;BME280;6244;51.460;7.090;2023-12-22T07:50:07;99303.56;;;5.17;100.00
12360;BME280;6244;51.460;7.090;2023-12-22T07:55:05;99298.34;;;5.35;100.00
12360;BME280;6244;51.460;7.090;2023-12-22T08:00:03;99282.44;;;5.56;100.00
12360;BME280;6244;51.460;7.090;2023-12-22T08:05:00;99286.78;;;5.73;100.00
12360;BME280;6244;51.460;7.090;2023-12-22T08:09:58;99287.59;;;5.91;100.00
12360;BME280;6244;51.460;7.090;2023-12-22T08:14:55;99293.63;;;5.92;100.00
12360;BME280;6244;51.460;7.090;2023-12-22T08:19:51;99301.13;;;5.98;100.00
12360;BME280;6244;51.460;7.090;2023-12-22T08:24:48;99316.00;;;6.11;100.00
12360;BME280;6244;51.460;7.090;2023-12-22T08:29:45;99323.47;;;6.17;100.00
12360;BME280;6244;51.460;7.090;2023-12-22T08:34:42;99317.09;;;6.23;100.00
12360;BME280;6244;51.460;7.090;2023-12-22T08:39:39;99315.81;;;6.30;100.00
12360;BME280;6244;51.460;7.090;2023-12-22T08:44:35;99304.34;;;6.34;100.00
12360;BME280;6244;51.460;7.090;2023-12-22T08:49:33;99304.91;;;6.39;100.00
12360;BME280;6244;51.460;7.090;2023-12-22T08:54:30;99306.50;;;6.42;100.00
12360;BME280;6244;51.460;7.090;2023-12-22T08:59:26;99306.41;;;6.43;100.00
12360;BME280;6244;51.460;7.090;2023-12-22T09:04:23;99311.13;;;6.53;100.00
12360;BME280;6244;51.460;7.090;2023-12-22T09:09:21;99296.13;;;6.56;100.00
12360;BME280;6244;51.460;7.090;2023-12-22T09:14:19;99299.66;;;6.55;100.00
12360;BME280;6244;51.460;7.090;2023-12-22T09:19:16;99257.63;;;6.00;99.52
12360;BME280;6244;51.460;7.090;2023-12-22T09:24:13;99299.47;;;5.79;100.00
12360;BME280;6244;51.460;7.090;2023-12-22T09:29:11;99297.50;;;5.67;100.00
12360;BME280;6244;51.460;7.090;2023-12-22T09:34:08;99286.72;;;5.57;100.00
12360;BME280;6244;51.460;7.090;2023-12-22T09:39:04;99272.63;;;5.46;100.00
12360;BME280;6244;51.460;7.090;2023-12-22T09:44:03;99275.78;;;5.35;100.00
12360;BME280;6244;51.460;7.090;2023-12-22T09:49:02;99268.38;;;5.27;100.00
12360;BME280;6244;51.460;7.090;2023-12-22T09:53:59;99299.31;;;5.32;100.00
12360;BME280;6244;51.460;7.090;2023-12-22T09:58:56;99286.28;;;5.34;100.00
12360;BME280;6244;51.460;7.090;2023-12-22T10:03:53;99286.31;;;5.32;100.00
12360;BME280;6244;51.460;7.090;2023-12-22T10:08:52;99250.53;;;5.37;100.00
12360;BME280;6244;51.460;7.090;2023-12-22T10:13:50;99258.09;;;5.42;100.00
12360;BME280;6244;51.460;7.090;2023-12-22T10:18:48;99266.66;;;5.44;100.00
12360;BME280;6244;51.460;7.090;2023-12-22T10:23:45;99246.28;;;5.52;100.00
12360;BME280;6244;51.460;7.090;2023-12-22T10:28:43;99251.94;;;5.60;100.00
12360;BME280;6244;51.460;7.090;2023-12-22T10:33:40;99239.84;;;5.75;100.00
12360;BME280;6244;51.460;7.090;2023-12-22T10:38:36;99227.72;;;5.91;100.00
12360;BME280;6244;51.460;7.090;2023-12-22T10:43:37;99227.31;;;5.99;100.00
12360;BME280;6244;51.460;7.090;2023-12-22T10:48:35;99217.97;;;6.10;100.00
12360;BME280;6244;51.460;7.090;2023-12-22T10:53:32;99222.66;;;6.04;100.00
12360;BME280;6244;51.460;7.090;2023-12-22T10:58:28;99270.63;;;6.00;100.00
12360;BME280;6244;51.460;7.090;2023-12-22T11:03:26;99252.28;;;5.85;100.00
12360;BME280;6244;51.460;7.090;2023-12-22T11:08:28;99244.56;;;5.84;100.00
12360;BME280;6244;51.460;7.090;2023-12-22T11:13:25;99244.41;;;5.71;100.00
12360;BME280;6244;51.460;7.090;2023-12-22T11:18:22;99234.97;;;5.69;100.00
12360;BME280;6244;51.460;7.090;2023-12-22T11:23:20;99228.00;;;5.69;100.00
12360;BME280;6244;51.460;7.090;2023-12-22T11:28:19;99202.16;;;5.66;100.00
12360;BME280;6244;51.460;7.090;2023-12-22T11:33:17;99201.66;;;5.75;100.00
12360;BME280;6244;51.460;7.090;2023-12-22T11:38:14;99209.78;;;5.69;100.00
12360;BME280;6244;51.460;7.090;2023-12-22T11:43:12;99237.66;;;5.67;100.00
12360;BME280;6244;51.460;7.090;2023-12-22T11:48:10;99207.97;;;5.71;100.00
12360;BME280;6244;51.460;7.090;2023-12-22T11:53:20;99206.03;;;5.75;100.00
12360;BME280;6244;51.460;7.090;2023-12-22T11:58:33;99184.63;;;5.85;100.00
12360;BME280;6244;51.460;7.090;2023-12-22T12:03:31;99160.63;;;5.96;100.00
12360;BME280;6244;51.460;7.090;2023-12-22T12:08:29;99159.09;;;6.08;100.00
12360;BME280;6244;51.460;7.090;2023-12-22T12:13:27;99161.72;;;6.38;100.00
12360;BME280;6244;51.460;7.090;2023-12-22T12:18:32;99150.88;;;6.60;100.00
12360;BME280;6244;51.460;7.090;2023-12-22T12:23:29;99164.34;;;6.96;100.00
12360;BME280;6244;51.460;7.090;2023-12-22T12:28:28;99154.00;;;7.23;100.00
12360;BME280;6244;51.460;7.090;2023-12-22T12:33:25;99168.25;;;7.32;100.00
12360;BME280;6244;51.460;7.090;2023-12-22T12:38:33;99171.00;;;7.43;100.00
12360;BME280;6244;51.460;7.090;2023-12-22T12:43:32;99164.13;;;7.42;100.00
12360;BME280;6244;51.460;7.090;2023-12-22T12:48:28;99161.50;;;7.42;100.00
12360;BME280;6244;51.460;7.090;2023-12-22T12:53:32;99164.22;;;7.41;100.00
12360;BME280;6244;51.460;7.090;2023-12-22T12:58:29;99167.03;;;7.23;100.00
12360;BME280;6244;51.460;7.090;2023-12-22T13:03:26;99169.56;;;7.25;100.00
12360;BME280;6244;51.460;7.090;2023-12-22T13:08:22;99166.31;;;7.21;100.00
12360;BME280;6244;51.460;7.090;2023-12-22T13:13:20;99160.31;;;7.19;100.00
12360;BME280;6244;51.460;7.090;2023-12-22T13:18:17;99173.28;;;7.21;100.00
12360;BME280;6244;51.460;7.090;2023-12-22T13:23:17;99170.00;;;7.17;100.00
12360;BME280;6244;51.460;7.090;2023-12-22T13:28:13;99166.47;;;7.18;100.00
12360;BME280;6244;51.460;7.090;2023-12-22T13:33:11;99172.72;;;7.16;100.00
12360;BME280;6244;51.460;7.090;2023-12-22T13:38:09;99158.19;;;7.12;100.00
12360;BME280;6244;51.460;7.090;2023-12-22T13:43:05;99145.06;;;7.13;100.00
12360;BME280;6244;51.460;7.090;2023-12-22T13:48:02;99152.59;;;7.18;100.00
12360;BME280;6244;51.460;7.090;2023-12-22T13:53:08;99171.22;;;7.26;100.00
12360;BME280;6244;51.460;7.090;2023-12-22T13:58:05;99165.78;;;7.43;100.00
12360;BME280;6244;51.460;7.090;2023-12-22T14:03:02;99163.25;;;7.56;100.00
12360;BME280;6244;51.460;7.090;2023-12-22T14:07:59;99179.28;;;7.64;100.00
12360;BME280;6244;51.460;7.090;2023-12-22T14:12:56;99163.59;;;7.78;100.00
12360;BME280;6244;51.460;7.090;2023-12-22T14:17:53;99172.03;;;7.69;100.00
12360;BME280;6244;51.460;7.090;2023-12-22T14:22:49;99184.16;;;7.70;100.00
12360;BME280;6244;51.460;7.090;2023-12-22T14:27:46;99193.28;;;7.63;100.00
12360;BME280;6244;51.460;7.090;2023-12-22T14:32:44;99182.81;;;7.77;100.00
12360;BME280;6244;51.460;7.090;2023-12-22T14:37:40;99185.22;;;7.80;100.00
12360;BME280;6244;51.460;7.090;2023-12-22T14:42:38;99204.81;;;7.87;100.00
12360;BME280;6244;51.460;7.090;2023-12-22T14:47:34;99202.16;;;8.02;100.00
12360;BME280;6244;51.460;7.090;2023-12-22T14:52:32;99207.09;;;8.06;100.00
12360;BME280;6244;51.460;7.090;2023-12-22T14:57:29;99189.09;;;8.29;100.00
12360;BME280;6244;51.460;7.090;2023-12-22T15:02:26;99200.38;;;8.29;100.00
12360;BME280;6244;51.460;7.090;2023-12-22T15:07:23;99197.34;;;8.22;100.00
12360;BME280;6244;51.460;7.090;2023-12-22T15:12:21;99222.16;;;8.15;100.00
12360;BME280;6244;51.460;7.090;2023-12-22T15:17:17;99221.47;;;7.99;100.00
12360;BME280;6244;51.460;7.090;2023-12-22T15:22:14;99213.53;;;8.01;100.00
12360;BME280;6244;51.460;7.090;2023-12-22T15:27:11;99216.63;;;8.07;100.00
12360;BME280;6244;51.460;7.090;2023-12-22T15:32:09;99220.38;;;7.89;100.00
12360;BME280;6244;51.460;7.090;2023-12-22T15:37:05;99203.44;;;7.82;100.00
12360;BME280;6244;51.460;7.090;2023-12-22T15:42:02;99199.69;;;7.86;100.00
12360;BME280;6244;51.460;7.090;2023-12-22T15:46:59;99242.75;;;7.93;100.00
12360;BME280;6244;51.460;7.090;2023-12-22T15:51:57;99257.88;;;7.88;100.00
12360;BME280;6244;51.460;7.090;2023-12-22T15:56:53;99242.00;;;7.91;100.00
12360;BME280;6244;51.460;7.090;2023-12-22T16:01:51;99243.84;;;8.03;100.00
12360;BME280;6244;51.460;7.090;2023-12-22T16:06:47;99242.91;;;8.04;100.00
12360;BME280;6244;51.460;7.090;2023-12-22T16:11:45;99252.25;;;8.08;100.00
12360;BME280;6244;51.460;7.090;2023-12-22T16:16:42;99244.03;;;8.00;100.00
12360;BME280;6244;51.460;7.090;2023-12-22T16:21:41;99251.28;;;7.82;100.00
12360;BME280;6244;51.460;7.090;2023-12-22T16:26:39;99259.94;;;7.83;100.00
12360;BME280;6244;51.460;7.090;2023-12-22T16:31:39;99284.28;;;7.69;100.00
12360;BME280;6244;51.460;7.090;2023-12-22T16:36:36;99265.53;;;7.62;100.00
12360;BME280;6244;51.460;7.090;2023-12-22T16:41:35;99283.34;;;7.70;100.00
12360;BME280;6244;51.460;7.090;2023-12-22T16:46:33;99298.53;;;7.78;100.00
12360;BME280;6244;51.460;7.090;2023-12-22T16:51:31;99300.50;;;7.74;100.00
12360;BME280;6244;51.460;7.090;2023-12-22T16:56:27;99299.78;;;7.72;100.00
12360;BME280;6244;51.460;7.090;2023-12-22T17:01:26;99291.44;;;7.80;100.00
12360;BME280;6244;51.460;7.090;2023-12-22T17:06:22;99290.91;;;7.60;100.00
12360;BME280;6244;51.460;7.090;2023-12-22T17:11:20;99314.19;;;7.49;100.00
12360;BME280;6244;51.460;7.090;2023-12-22T17:16:17;99303.28;;;7.43;100.00
12360;BME280;6244;51.460;7.090;2023-12-22T17:21:13;99295.63;;;7.40;100.00
12360;BME280;6244;51.460;7.090;2023-12-22T17:26:11;99301.69;;;7.26;100.00
12360;BME280;6244;51.460;7.090;2023-12-22T17:31:09;99305.50;;;7.20;100.00
12360;BME280;6244;51.460;7.090;2023-12-22T17:36:06;99322.53;;;7.26;100.00
12360;BME280;6244;51.460;7.090;2023-12-22T17:41:02;99339.75;;;7.44;100.00
12360;BME280;6244;51.460;7.090;2023-12-22T17:45:59;99339.56;;;7.47;100.00
12360;BME280;6244;51.460;7.090;2023-12-22T17:50:57;99344.97;;;7.58;100.00
12360;BME280;6244;51.460;7.090;2023-12-22T17:55:54;99325.41;;;7.65;100.00
12360;BME280;6244;51.460;7.090;2023-12-22T18:00:50;99354.69;;;7.71;100.00
12360;BME280;6244;51.460;7.090;2023-12-22T18:05:47;99348.53;;;7.72;100.00
12360;BME280;6244;51.460;7.090;2023-12-22T18:10:45;99349.94;;;7.77;100.00
12360;BME280;6244;51.460;7.090;2023-12-22T18:15:42;99346.66;;;7.74;100.00
12360;BME280;6244;51.460;7.090;2023-12-22T18:20:39;99362.13;;;7.62;100.00
12360;BME280;6244;51.460;7.090;2023-12-22T18:25:37;99364.09;;;7.73;100.00
12360;BME280;6244;51.460;7.090;2023-12-22T18:30:36;99356.28;;;7.73;100.00
12360;BME280;6244;51.460;7.090;2023-12-22T18:35:32;99380.06;;;7.83;100.00
12360;BME280;6244;51.460;7.090;2023-12-22T18:40:29;99410.00;;;7.33;100.00
12360;BME280;6244;51.460;7.090;2023-12-22T18:45:25;99395.97;;;7.04;100.00
12360;BME280;6244;51.460;7.090;2023-12-22T18:50:23;99388.91;;;7.06;100.00
12360;BME280;6244;51.460;7.090;2023-12-22T18:55:22;99415.81;;;7.22;100.00
12360;BME280;6244;51.460;7.090;2023-12-22T19:00:18;99416.66;;;7.23;100.00
12360;BME280;6244;51.460;7.090;2023-12-22T19:05:15;99398.84;;;6.99;100.00
12360;BME280;6244;51.460;7.090;2023-12-22T19:10:13;99413.81;;;7.12;100.00
12360;BME280;6244;51.460;7.090;2023-12-22T19:15:09;99429.78;;;7.05;100.00
12360;BME280;6244;51.460;7.090;2023-12-22T19:20:07;99439.75;;;6.99;100.00
12360;BME280;6244;51.460;7.090;2023-12-22T19:25:04;99439.75;;;6.99;100.00
12360;BME280;6244;51.460;7.090;2023-12-22T19:30:02;99460.69;;;6.97;100.00
12360;BME280;6244;51.460;7.090;2023-12-22T19:35:00;99469.84;;;7.04;100.00
12360;BME280;6244;51.460;7.090;2023-12-22T19:39:57;99467.25;;;7.04;100.00
12360;BME280;6244;51.460;7.090;2023-12-22T19:44:54;99491.22;;;7.11;100.00
12360;BME280;6244;51.460;7.090;2023-12-22T19:49:52;99508.97;;;7.04;100.00
12360;BME280;6244;51.460;7.090;2023-12-22T19:54:48;99503.75;;;6.89;100.00
12360;BME280;6244;51.460;7.090;2023-12-22T19:59:45;99504.34;;;6.94;100.00
12360;BME280;6244;51.460;7.090;2023-12-22T20:04:41;99523.59;;;6.91;100.00
12360;BME280;6244;51.460;7.090;2023-12-22T20:09:39;99544.97;;;6.82;100.00
12360;BME280;6244;51.460;7.090;2023-12-22T20:14:36;99559.94;;;6.78;100.00
12360;BME280;6244;51.460;7.090;2023-12-22T20:19:32;99556.84;;;6.88;100.00
12360;BME280;6244;51.460;7.090;2023-12-22T20:24:29;99548.25;;;6.86;100.00
12360;BME280;6244;51.460;7.090;2023-12-22T20:29:27;99552.47;;;6.88;100.00
12360;BME280;6244;51.460;7.090;2023-12-22T20:34:24;99584.59;;;6.89;100.00
12360;BME280;6244;51.460;7.090;2023-12-22T20:39:20;99584.09;;;6.82;100.00
12360;BME280;6244;51.460;7.090;2023-12-22T20:44:17;99590.91;;;6.85;100.00
12360;BME280;6244;51.460;7.090;2023-12-22T20:49:14;99598.72;;;6.85;100.00
12360;BME280;6244;51.460;7.090;2023-12-22T20:54:11;99613.41;;;6.70;100.00
12360;BME280;6244;51.460;7.090;2023-12-22T20:59:08;99630.88;;;6.68;100.00
12360;BME280;6244;51.460;7.090;2023-12-22T21:04:05;99622.41;;;6.97;100.00
12360;BME280;6244;51.460;7.090;2023-12-22T21:09:03;99641.50;;;6.98;100.00
12360;BME280;6244;51.460;7.090;2023-12-22T21:14:00;99648.22;;;7.02;100.00
12360;BME280;6244;51.460;7.090;2023-12-22T21:18:58;99663.78;;;6.70;100.00
12360;BME280;6244;51.460;7.090;2023-12-22T21:23:55;99660.31;;;6.53;100.00
12360;BME280;6244;51.460;7.090;2023-12-22T21:28:53;99651.88;;;6.30;100.00
12360;BME280;6244;51.460;7.090;2023-12-22T21:33:49;99663.91;;;5.98;100.00
12360;BME280;6244;51.460;7.090;2023-12-22T21:38:46;99669.72;;;6.03;100.00
12360;BME280;6244;51.460;7.090;2023-12-22T21:43:42;99695.81;;;6.21;100.00
12360;BME280;6244;51.460;7.090;2023-12-22T21:48:40;99705.31;;;6.03;100.00
12360;BME280;6244;51.460;7.090;2023-12-22T21:53:37;99722.28;;;6.11;100.00
12360;BME280;6244;51.460;7.090;2023-12-22T21:58:34;99733.47;;;5.95;100.00
12360;BME280;6244;51.460;7.090;2023-12-22T22:03:31;99736.56;;;6.03;100.00
12360;BME280;6244;51.460;7.090;2023-12-22T22:08:29;99748.00;;;6.36;100.00
12360;BME280;6244;51.460;7.090;2023-12-22T22:13:25;99774.22;;;6.33;100.00
12360;BME280;6244;51.460;7.090;2023-12-22T22:18:22;99773.47;;;6.48;100.00
12360;BME280;6244;51.460;7.090;2023-12-22T22:23:18;99777.16;;;6.26;100.00
12360;BME280;6244;51.460;7.090;2023-12-22T22:28:16;99791.28;;;6.22;100.00
12360;BME280;6244;51.460;7.090;2023-12-22T22:33:13;99804.97;;;6.25;100.00
12360;BME280;6244;51.460;7.090;2023-12-22T22:38:10;99827.34;;;6.48;100.00
12360;BME280;6244;51.460;7.090;2023-12-22T22:43:06;99834.84;;;6.37;100.00
12360;BME280;6244;51.460;7.090;2023-12-22T22:48:06;99847.28;;;6.49;100.00
12360;BME280;6244;51.460;7.090;2023-12-22T22:53:06;99847.84;;;5.99;100.00
12360;BME280;6244;51.460;7.090;2023-12-22T22:58:03;99861.50;;;6.04;100.00
12360;BME280;6244;51.460;7.090;2023-12-22T23:03:00;99859.03;;;6.20;100.00
12360;BME280;6244;51.460;7.090;2023-12-22T23:07:58;99862.16;;;6.09;100.00
12360;BME280;6244;51.460;7.090;2023-12-22T23:12:54;99868.47;;;6.04;100.00
12360;BME280;6244;51.460;7.090;2023-12-22T23:17:51;99864.06;;;5.85;100.00
12360;BME280;6244;51.460;7.090;2023-12-22T23:22:48;99867.66;;;5.83;100.00
12360;BME280;6244;51.460;7.090;2023-12-22T23:27:46;99867.47;;;6.06;100.00
12360;BME280;6244;51.460;7.090;2023-12-22T23:32:43;99876.66;;;6.15;100.00
12360;BME280;6244;51.460;7.090;2023-12-22T23:37:39;99889.97;;;5.88;100.00
12360;BME280;6244;51.460;7.090;2023-12-22T23:42:36;99890.63;;;5.94;100.00
12360;BME280;6244;51.460;7.090;2023-12-22T23:47:34;99891.97;;;6.02;100.00
12360;BME280;6244;51.460;7.090;2023-12-22T23:52:30;99888.88;;;5.74;100.00
12360;BME280;6244;51.460;7.090;2023-12-22T23:57:27;99902.22;;;5.66;100.00
